createdAt,value
2023-04-07T06:51:49.924Z,1.77
2023-04-07T06:54:53.325Z,1.58
2023-04-07T06:57:56.478Z,1.37
2023-04-07T07:00:59.945Z,1.43
2023-04-07T07:04:03.388Z,1.40
2023-04-07T07:07:08.261Z,1.50
2023-04-07T07:10:11.953Z,1.52
2023-04-07T07:13:15.463Z,1.75
2023-04-07T07:16:18.718Z,1.50
2023-04-07T07:19:22.214Z,1.57
2023-04-07T07:22:27.199Z,1.60
2023-04-07T07:25:31.209Z,1.63
2023-04-07T07:28:34.615Z,1.80
2023-04-07T07:31:38.180Z,1.67
2023-04-07T07:34:41.518Z,1.80
2023-04-07T07:37:46.457Z,1.97
2023-04-07T07:40:49.945Z,1.70
2023-04-07T07:43:53.356Z,1.87
2023-04-07T07:46:56.987Z,1.80
2023-04-07T07:50:00.692Z,1.95
2023-04-07T07:53:05.712Z,1.63
2023-04-07T07:56:08.980Z,1.67
2023-04-07T07:59:12.216Z,1.20
2023-04-07T08:02:15.676Z,1.40
2023-04-07T08:05:19.402Z,1.38
2023-04-07T08:08:24.438Z,1.83
2023-04-07T08:11:28.577Z,1.73
2023-04-07T08:17:35.279Z,1.90
2023-04-07T08:20:38.976Z,1.80
2023-04-07T08:23:43.787Z,1.88
2023-04-07T08:26:47.170Z,1.75
2023-04-07T08:30:00.853Z,1.50
2023-04-07T08:33:05.279Z,1.53
2023-04-07T08:36:09.110Z,1.92
2023-04-07T08:39:13.798Z,1.73
2023-04-07T08:42:18.795Z,1.85
2023-04-07T08:45:22.839Z,1.70
2023-04-07T08:48:28.698Z,1.60
2023-04-07T08:51:33.835Z,1.45
2023-04-07T08:54:39.299Z,1.92
2023-04-07T08:57:42.865Z,1.40
2023-04-07T09:00:49.315Z,1.80
2023-04-07T09:03:53.451Z,1.85
2023-04-07T09:06:56.867Z,1.70
2023-04-07T09:10:03.073Z,1.63
2023-04-07T09:13:06.344Z,2.05
2023-04-07T09:16:09.612Z,1.98
2023-04-07T09:19:13.194Z,1.57
2023-04-07T09:22:16.351Z,1.50
2023-04-07T09:25:23.844Z,1.90
2023-04-07T09:28:27.441Z,1.90
2023-04-07T09:31:47.026Z,1.88
2023-04-07T09:35:00.143Z,1.60
2023-04-07T09:38:05.577Z,1.95
2023-04-07T09:41:12.114Z,1.75
2023-04-07T09:44:15.847Z,1.75
2023-04-07T09:47:19.207Z,2.00
2023-04-07T09:50:33.795Z,2.00
2023-04-07T09:53:45.122Z,1.63
2023-04-07T09:56:51.101Z,1.50
2023-04-07T09:59:55.886Z,1.33
2023-04-07T10:02:59.984Z,1.45
2023-04-07T10:09:06.567Z,1.73
2023-04-07T10:12:12.213Z,1.45
2023-04-07T10:15:16.755Z,1.50
2023-04-07T10:18:23.112Z,1.33
2023-04-07T10:21:27.794Z,1.40
2023-04-07T10:24:52.229Z,1.90
2023-04-07T10:28:01.236Z,1.52
2023-04-07T10:31:05.715Z,1.27
2023-04-07T10:34:09.202Z,1.33
2023-04-07T10:37:14.457Z,1.20
2023-04-07T10:40:30.773Z,1.25
2023-04-07T10:43:44.993Z,1.40
2023-04-07T10:47:05.089Z,1.38
2023-04-07T10:50:19.959Z,1.10
2023-04-07T10:53:24.228Z,1.20
2023-04-07T10:56:28.226Z,1.35
2023-04-07T10:59:33.744Z,1.17
2023-04-07T11:02:39.316Z,1.30
2023-04-07T11:05:43.020Z,1.23
2023-04-07T11:08:49.339Z,1.23
2023-04-07T11:11:53.512Z,1.35
2023-04-07T11:14:59.830Z,1.17
2023-04-07T11:18:18.228Z,1.10
2023-04-07T11:21:21.822Z,1.30
2023-04-07T11:24:34.828Z,1.30
2023-04-07T11:27:38.241Z,1.13
2023-04-07T11:30:49.875Z,0.90
2023-04-07T11:33:55.633Z,0.88
2023-04-07T11:37:02.065Z,1.10
2023-04-07T11:40:06.107Z,0.90
2023-04-07T11:43:18.074Z,0.93
2023-04-07T11:46:23.896Z,0.80
2023-04-07T11:49:29.176Z,1.00
2023-04-07T11:52:42.405Z,1.05
2023-04-07T11:55:45.671Z,1.30
2023-04-07T11:58:49.831Z,1.13
2023-04-07T12:05:00.881Z,1.10
2023-04-07T12:08:04.598Z,1.27
2023-04-07T12:11:08.311Z,1.30
2023-04-07T12:14:11.898Z,1.00
2023-04-07T12:17:25.056Z,0.93
2023-04-07T12:20:28.871Z,1.02
2023-04-07T12:23:32.349Z,0.90
2023-04-07T12:26:35.635Z,1.10
2023-04-07T12:29:39.044Z,1.13
2023-04-07T12:32:44.211Z,1.37
2023-04-07T12:35:48.159Z,1.10
2023-04-07T12:38:51.586Z,1.33
2023-04-07T12:41:54.833Z,1.50
2023-04-07T12:44:58.110Z,1.30
2023-04-07T12:48:03.085Z,1.10
2023-04-07T12:51:06.611Z,1.27
2023-04-07T12:54:09.834Z,1.20
2023-04-07T12:57:13.062Z,1.33
2023-04-07T13:00:16.713Z,0.90
2023-04-07T13:03:21.573Z,1.45
2023-04-07T13:06:25.818Z,1.27
2023-04-07T13:09:29.053Z,0.98
2023-04-07T13:12:32.239Z,1.00
2023-04-07T13:15:36.218Z,1.02
2023-04-07T13:21:47.277Z,1.20
2023-04-07T13:24:51.067Z,1.05
2023-04-07T13:27:54.442Z,1.20
2023-04-07T13:30:58.116Z,1.03
2023-04-07T13:34:02.926Z,0.98
2023-04-07T13:37:06.618Z,1.20
2023-04-07T13:40:11.141Z,1.30
2023-04-07T13:43:14.449Z,1.40
2023-04-07T13:46:27.879Z,1.40
2023-04-07T13:49:33.392Z,1.13
2023-04-07T13:52:36.560Z,1.40
2023-04-07T13:55:40.216Z,1.50
2023-04-07T13:58:43.462Z,1.55
2023-04-07T14:01:46.869Z,1.10
2023-04-07T14:04:51.939Z,1.27
2023-04-07T14:07:55.235Z,1.10
2023-04-07T14:10:58.547Z,1.10
2023-04-07T14:14:02.196Z,1.00
2023-04-07T14:17:05.853Z,0.95
2023-04-07T14:20:11.193Z,1.08
2023-04-07T14:23:20.683Z,1.08
2023-04-07T14:26:29.881Z,1.20
2023-04-07T14:29:33.420Z,0.90
2023-04-07T14:32:37.061Z,1.23
2023-04-07T14:35:41.915Z,0.98
2023-04-07T14:38:45.533Z,0.88
2023-04-07T14:41:49.139Z,1.25
2023-04-07T14:44:53.232Z,1.20
2023-04-07T14:47:56.912Z,1.30
2023-04-07T14:51:09.242Z,1.08
2023-04-07T14:54:13.182Z,1.30
2023-04-07T14:57:16.765Z,1.03
2023-04-07T15:00:20.560Z,1.00
2023-04-07T15:03:24.134Z,1.20
2023-04-07T15:06:29.255Z,0.95
2023-04-07T15:09:32.713Z,1.23
2023-04-07T15:12:36.067Z,1.20
2023-04-07T15:15:39.239Z,1.55
2023-04-07T15:18:45.560Z,1.48
2023-04-07T15:21:50.430Z,1.20
2023-04-07T15:24:54.143Z,1.25
2023-04-07T15:27:57.553Z,1.33
2023-04-07T15:31:01.792Z,1.43
2023-04-07T15:37:10.677Z,1.10
2023-04-07T15:40:14.205Z,1.20
2023-04-07T15:43:17.465Z,1.20
2023-04-07T15:46:20.987Z,1.37
2023-04-07T15:49:26.114Z,1.17
2023-04-07T15:52:31.367Z,1.10
2023-04-07T15:55:35.573Z,1.10
2023-04-07T15:58:38.752Z,1.33
2023-04-07T16:01:42.299Z,1.20
2023-04-07T16:04:47.468Z,1.20
2023-04-07T16:07:52.740Z,1.13
2023-04-07T16:10:56.576Z,1.30
2023-04-07T16:13:59.853Z,1.02
2023-04-07T16:17:03.378Z,1.03
2023-04-07T16:20:10.088Z,1.37
2023-04-07T16:23:14.710Z,1.20
2023-04-07T16:26:17.943Z,1.23
2023-04-07T16:29:22.501Z,1.42
2023-04-07T16:32:27.271Z,1.17
2023-04-07T16:35:32.005Z,1.00
2023-04-07T16:38:36.759Z,1.30
2023-04-07T16:41:40.123Z,1.15
2023-04-07T16:44:43.391Z,1.67
2023-04-07T16:47:46.824Z,1.67
2023-04-07T16:50:50.599Z,1.30
2023-04-07T16:53:55.326Z,1.30
2023-04-07T16:56:58.530Z,1.60
2023-04-07T17:00:01.928Z,1.40
2023-04-07T17:03:05.216Z,1.20
2023-04-07T17:06:08.821Z,1.50
2023-04-07T17:09:16.166Z,1.50
2023-04-07T17:12:19.527Z,1.60
2023-04-07T17:15:23.041Z,1.33
2023-04-07T17:18:26.720Z,1.40
2023-04-07T17:21:31.417Z,1.40
2023-04-07T17:24:36.256Z,1.50
2023-04-07T17:27:39.673Z,1.27
2023-04-07T17:30:42.990Z,1.47
2023-04-07T17:33:47.060Z,1.60
2023-04-07T17:36:50.721Z,0.95
2023-04-07T17:39:55.432Z,1.33
2023-04-07T17:43:00.289Z,1.40
2023-04-07T17:46:04.532Z,1.25
2023-04-07T17:52:11.173Z,1.48
2023-04-07T17:55:16.418Z,1.23
2023-04-07T17:58:21.133Z,1.65
2023-04-07T18:01:24.673Z,1.23
2023-04-07T18:04:28.903Z,1.10
2023-04-07T18:10:37.628Z,1.40
2023-04-07T18:13:41.080Z,1.45
2023-04-07T18:16:44.385Z,1.20
2023-04-07T18:19:48.079Z,1.17
2023-04-07T18:22:52.398Z,1.25
2023-04-07T18:25:57.261Z,1.77
2023-04-07T18:29:01.568Z,1.63
2023-04-07T18:35:09.070Z,1.15
2023-04-07T18:38:12.261Z,1.63
2023-04-07T18:41:16.927Z,1.88
2023-04-07T18:44:20.305Z,1.45
2023-04-07T18:47:24.318Z,1.30
2023-04-07T18:50:27.624Z,1.17
2023-04-07T18:53:30.898Z,1.20
2023-04-07T18:56:35.512Z,1.50
2023-04-07T18:59:38.712Z,1.75
2023-04-07T19:02:44.656Z,1.60
2023-04-07T19:05:48.482Z,1.73
2023-04-07T19:08:51.698Z,1.23
2023-04-07T19:11:57.122Z,1.27
2023-04-07T19:15:00.546Z,1.67
2023-04-07T19:18:03.821Z,1.43
2023-04-07T19:21:07.947Z,1.50
2023-04-07T19:24:11.371Z,1.55
2023-04-07T19:27:17.096Z,1.45
2023-04-07T19:30:20.926Z,2.00
2023-04-07T19:33:24.216Z,1.40
2023-04-07T19:36:28.100Z,1.35
2023-04-07T19:39:31.507Z,1.25
2023-04-07T19:42:37.994Z,1.47
2023-04-07T19:45:41.727Z,1.50
2023-04-07T19:48:45.195Z,1.55
2023-04-07T19:51:48.877Z,1.53
2023-04-07T19:54:52.852Z,1.60
2023-04-07T19:57:57.827Z,1.40
2023-04-07T20:01:02.654Z,1.17
2023-04-07T20:04:06.325Z,1.10
2023-04-07T20:07:09.685Z,1.25
2023-04-07T20:10:12.984Z,1.70
2023-04-07T20:13:17.921Z,1.50
2023-04-07T20:16:21.808Z,1.90
2023-04-07T20:19:25.174Z,1.38
2023-04-07T20:22:28.790Z,1.55
2023-04-07T20:25:31.956Z,1.40
2023-04-07T20:28:36.595Z,1.42
2023-04-07T20:31:41.199Z,1.70
2023-04-07T20:34:46.074Z,2.00
2023-04-07T20:37:50.881Z,2.05
2023-04-07T20:40:54.950Z,2.05
2023-04-07T20:43:59.669Z,1.77
2023-04-07T20:47:08.408Z,1.90
2023-04-07T20:50:11.813Z,2.03
2023-04-07T20:53:14.956Z,1.73
2023-04-07T20:56:18.561Z,2.00
2023-04-07T20:59:23.864Z,1.88
2023-04-07T21:02:27.484Z,1.80
2023-04-07T21:05:30.764Z,2.15
2023-04-07T21:08:34.454Z,2.40
2023-04-07T21:11:38.460Z,2.08
2023-04-07T21:14:43.481Z,1.55
2023-04-07T21:17:47.248Z,1.90
2023-04-07T21:20:50.842Z,1.90
2023-04-07T21:23:54.709Z,1.77
2023-04-07T21:26:57.971Z,1.73
2023-04-07T21:30:04.794Z,2.03
2023-04-07T21:33:08.082Z,1.80
2023-04-07T21:36:11.529Z,1.90
2023-04-07T21:39:14.899Z,2.10
2023-04-07T21:42:18.209Z,1.57
2023-04-07T21:45:23.123Z,2.37
2023-04-07T21:48:26.524Z,1.85
2023-04-07T21:51:29.764Z,1.73
2023-04-07T21:54:33.266Z,1.90
2023-04-07T21:57:36.686Z,2.08
2023-04-07T22:00:41.776Z,1.67
2023-04-07T22:03:45.802Z,1.85
2023-04-07T22:06:50.217Z,1.85
2023-04-07T22:09:53.792Z,1.90
2023-04-07T22:12:57.070Z,1.80
2023-04-07T22:16:02.301Z,2.00
2023-04-07T22:19:05.757Z,2.05
2023-04-07T22:22:09.445Z,1.83
2023-04-07T22:25:12.796Z,1.83
2023-04-07T22:28:16.445Z,2.03
2023-04-07T22:31:21.096Z,1.80
2023-04-07T22:34:24.454Z,1.95
2023-04-07T22:37:27.874Z,1.83
2023-04-07T22:40:31.455Z,2.13
2023-04-07T22:43:34.670Z,2.00
2023-04-07T22:46:39.455Z,2.10
2023-04-07T22:49:43.196Z,1.90
2023-04-07T22:52:46.369Z,2.05
2023-04-07T22:55:50.470Z,2.50
2023-04-07T22:58:53.810Z,2.00
2023-04-07T23:01:58.432Z,2.07
2023-04-07T23:05:02.128Z,2.10
2023-04-07T23:08:05.447Z,2.13
2023-04-07T23:11:09.960Z,2.07
2023-04-07T23:14:13.162Z,2.00
2023-04-07T23:17:17.801Z,1.85
2023-04-07T23:20:21.267Z,1.75
2023-04-07T23:23:24.681Z,2.20
2023-04-07T23:26:27.995Z,2.43
2023-04-07T23:29:31.613Z,2.23
2023-04-07T23:32:36.189Z,2.23
2023-04-07T23:35:39.675Z,1.85
2023-04-07T23:38:43.113Z,2.43
2023-04-07T23:41:46.312Z,2.00
2023-04-07T23:44:49.491Z,2.20
2023-04-07T23:47:54.602Z,1.80
2023-04-07T23:50:59.854Z,2.15
2023-04-07T23:54:03.617Z,1.88
2023-04-07T23:57:06.925Z,2.00
